createdAt,value
2022-12-24T00:02:34.681Z,63.03
2022-12-24T00:05:39.733Z,62.85
2022-12-24T00:08:44.246Z,63.03
2022-12-24T00:11:49.108Z,62.19
2022-12-24T00:14:53.626Z,62.64
2022-12-24T00:17:58.296Z,62.35
2022-12-24T00:21:04.825Z,62.11
2022-12-24T00:24:09.330Z,62.47
2022-12-24T00:27:13.854Z,62.25
2022-12-24T00:30:18.543Z,62.69
2022-12-24T00:33:24.803Z,62.31
2022-12-24T00:36:29.723Z,62.07
2022-12-24T00:39:34.738Z,62.11
2022-12-24T00:42:39.577Z,61.98
2022-12-24T00:45:44.409Z,62.05
2022-12-24T00:48:49.334Z,61.13
2022-12-24T00:51:53.993Z,60.01
2022-12-24T00:54:58.528Z,60.81
2022-12-24T00:58:02.821Z,61.29
2022-12-24T01:01:07.389Z,60.98
2022-12-24T01:04:30.400Z,61.37
2022-12-24T01:07:35.000Z,60.34
2022-12-24T01:10:39.619Z,62.01
2022-12-24T01:13:43.972Z,60.56
2022-12-24T01:16:48.435Z,60.30
2022-12-24T01:19:52.896Z,59.63
2022-12-24T01:22:57.551Z,60.16
2022-12-24T01:26:03.586Z,60.45
2022-12-24T01:29:08.290Z,60.94
2022-12-24T01:32:12.982Z,60.26
2022-12-24T01:35:17.365Z,58.69
2022-12-24T01:38:21.739Z,59.31
2022-12-24T01:41:45.021Z,60.06
2022-12-24T01:44:53.574Z,59.49
2022-12-24T01:47:58.806Z,57.96
2022-12-24T01:51:15.879Z,57.92
2022-12-24T01:54:33.275Z,58.25
2022-12-24T01:57:52.492Z,58.79
2022-12-24T02:00:57.228Z,58.02
2022-12-24T02:04:06.490Z,57.39
2022-12-24T02:07:11.417Z,58.10
2022-12-24T02:10:16.374Z,59.67
2022-12-24T02:13:22.486Z,59.50
2022-12-24T02:16:58.744Z,58.49
2022-12-24T02:20:26.397Z,58.65
2022-12-24T02:23:57.929Z,59.01
2022-12-24T02:27:34.521Z,58.12
2022-12-24T02:30:46.433Z,59.47
2022-12-24T02:34:06.042Z,58.84
2022-12-24T02:37:28.281Z,59.54
2022-12-24T02:40:40.528Z,60.08
2022-12-24T02:43:49.587Z,59.12
2022-12-24T02:46:55.294Z,59.31
2022-12-24T02:50:01.706Z,57.48
2022-12-24T02:53:10.481Z,59.11
2022-12-24T02:56:38.007Z,57.88
2022-12-24T03:00:09.025Z,57.96
2022-12-24T03:03:33.825Z,56.56
2022-12-24T03:06:53.405Z,56.77
2022-12-24T03:10:00.879Z,55.89
2022-12-24T03:13:19.196Z,56.83
2022-12-24T03:16:28.269Z,54.91
2022-12-24T03:19:34.303Z,58.03
2022-12-24T03:22:40.034Z,55.83
2022-12-24T03:25:45.694Z,55.25
2022-12-24T03:28:51.212Z,55.67
2022-12-24T03:32:02.385Z,55.82
2022-12-24T03:35:08.917Z,54.78
2022-12-24T03:38:13.423Z,54.32
2022-12-24T03:41:17.964Z,54.44
2022-12-24T03:44:22.490Z,54.77
2022-12-24T03:47:26.995Z,54.29
2022-12-24T03:50:31.627Z,52.72
2022-12-24T03:53:36.079Z,54.91
2022-12-24T03:56:40.402Z,55.80
2022-12-24T03:59:45.390Z,54.67
2022-12-24T04:02:50.158Z,53.50
2022-12-24T04:06:07.610Z,53.22
2022-12-24T04:09:12.240Z,55.21
2022-12-24T04:12:16.819Z,53.87
2022-12-24T04:15:21.401Z,54.43
2022-12-24T04:18:26.290Z,55.46
2022-12-24T04:21:30.800Z,55.02
2022-12-24T04:24:35.550Z,55.44
2022-12-24T04:27:39.983Z,55.92
2022-12-24T04:30:45.010Z,56.55
2022-12-24T04:33:52.111Z,56.66
2022-12-24T04:36:56.687Z,56.86
2022-12-24T04:40:01.216Z,55.40
2022-12-24T04:43:07.508Z,56.08
2022-12-24T04:46:20.916Z,55.49
2022-12-24T04:49:25.373Z,55.60
2022-12-24T04:52:30.139Z,54.99
2022-12-24T04:55:34.795Z,55.38
2022-12-24T04:58:39.655Z,58.81
2022-12-24T05:01:44.071Z,58.69
2022-12-24T05:04:48.839Z,57.27
2022-12-24T05:07:53.518Z,56.59
2022-12-24T05:11:02.314Z,57.10
2022-12-24T05:14:06.863Z,57.50
2022-12-24T05:17:11.707Z,57.21
2022-12-24T05:20:16.840Z,57.16
2022-12-24T05:23:42.644Z,57.92
2022-12-24T05:26:54.380Z,58.61
2022-12-24T05:29:59.020Z,59.02
2022-12-24T05:33:03.519Z,59.14
2022-12-24T05:36:08.771Z,57.48
2022-12-24T05:39:17.943Z,57.74
2022-12-24T05:42:22.441Z,57.37
2022-12-24T05:45:27.122Z,57.94
2022-12-24T05:48:31.986Z,56.41
2022-12-24T05:51:36.585Z,58.01
2022-12-24T05:54:41.210Z,58.75
2022-12-24T05:57:47.123Z,58.16
2022-12-24T06:00:55.427Z,56.79
2022-12-24T06:04:00.145Z,55.30
2022-12-24T06:07:04.586Z,56.37
2022-12-24T06:10:10.575Z,57.44
2022-12-24T06:13:16.410Z,56.00
2022-12-24T06:16:22.657Z,56.66
2022-12-24T06:19:27.525Z,56.81
2022-12-24T06:22:32.274Z,56.99
2022-12-24T06:25:36.590Z,57.77
2022-12-24T06:28:41.116Z,57.33
2022-12-24T06:31:45.980Z,57.69
2022-12-24T06:34:50.866Z,57.61
2022-12-24T06:37:55.575Z,57.86
2022-12-24T06:41:00.508Z,58.20
2022-12-24T06:44:05.285Z,58.73
2022-12-24T06:47:09.896Z,57.69
2022-12-24T06:50:14.835Z,58.89
2022-12-24T06:53:19.311Z,58.03
2022-12-24T06:56:23.963Z,58.88
2022-12-24T06:59:28.464Z,59.44
2022-12-24T07:02:33.188Z,59.93
2022-12-24T07:05:37.882Z,59.52
2022-12-24T07:08:42.371Z,59.42
2022-12-24T07:11:47.067Z,59.21
2022-12-24T07:14:51.678Z,59.42
2022-12-24T07:17:56.392Z,61.32
2022-12-24T07:21:02.147Z,61.61
2022-12-24T07:24:06.534Z,62.40
2022-12-24T07:27:11.141Z,60.04
2022-12-24T07:30:16.568Z,60.64
2022-12-24T07:33:21.259Z,61.75
2022-12-24T07:36:25.783Z,62.48
2022-12-24T07:39:30.783Z,61.91
2022-12-24T07:42:35.807Z,63.01
2022-12-24T07:45:41.309Z,63.70
2022-12-24T07:48:46.172Z,63.67
2022-12-24T07:51:50.730Z,65.29
2022-12-24T07:54:55.427Z,67.04
2022-12-24T07:58:00.128Z,65.53
2022-12-24T08:01:04.713Z,66.33
2022-12-24T08:04:09.630Z,65.74
2022-12-24T08:07:14.298Z,65.96
2022-12-24T08:10:19.053Z,65.73
2022-12-24T08:13:23.630Z,65.35
2022-12-24T08:16:28.283Z,65.50
2022-12-24T08:19:32.814Z,65.03
2022-12-24T08:22:38.960Z,65.72
2022-12-24T08:25:48.267Z,65.58
2022-12-24T08:28:52.870Z,65.05
2022-12-24T08:31:57.757Z,65.67
2022-12-24T08:35:02.107Z,66.68
2022-12-24T08:38:07.192Z,66.02
2022-12-24T08:41:11.864Z,66.55
2022-12-24T08:44:16.367Z,66.39
2022-12-24T08:47:20.863Z,66.18
2022-12-24T08:50:25.841Z,65.14
2022-12-24T08:53:30.297Z,64.98
2022-12-24T08:56:35.444Z,65.35
2022-12-24T08:59:39.834Z,65.88
2022-12-24T09:02:44.485Z,65.16
2022-12-24T09:05:49.401Z,65.25
2022-12-24T09:08:53.841Z,64.71
2022-12-24T09:11:58.653Z,65.81
2022-12-24T09:15:04.567Z,66.09
2022-12-24T09:18:09.315Z,66.13
2022-12-24T09:21:16.341Z,66.35
2022-12-24T09:24:20.899Z,65.90
2022-12-24T09:27:25.417Z,66.15
2022-12-24T09:30:29.737Z,65.26
2022-12-24T09:33:37.664Z,64.65
2022-12-24T09:36:42.108Z,65.50
2022-12-24T09:39:46.638Z,65.13
2022-12-24T09:42:55.172Z,63.83
2022-12-24T09:46:24.303Z,62.45
2022-12-24T09:49:40.129Z,62.79
2022-12-24T09:52:47.775Z,62.31
2022-12-24T09:55:57.742Z,64.07
2022-12-24T09:59:05.318Z,65.07
2022-12-24T10:02:16.579Z,65.71
2022-12-24T10:05:43.892Z,65.60
2022-12-24T10:09:07.368Z,64.51
2022-12-24T10:12:28.727Z,65.04
2022-12-24T10:15:47.949Z,63.61
2022-12-24T10:19:04.400Z,64.29
2022-12-24T10:22:36.228Z,63.68
2022-12-24T10:25:59.605Z,63.19
2022-12-24T10:29:26.276Z,65.28
2022-12-24T10:32:34.095Z,65.59
2022-12-24T10:35:47.645Z,65.06
2022-12-24T10:38:52.607Z,65.38
2022-12-24T10:42:00.817Z,64.96
2022-12-24T10:45:08.724Z,64.94
2022-12-24T10:48:26.706Z,64.30
2022-12-24T10:51:38.945Z,64.51
2022-12-24T10:55:22.125Z,66.28
2022-12-24T10:58:26.782Z,66.24
2022-12-24T11:01:48.986Z,67.25
2022-12-24T11:04:54.369Z,67.25
2022-12-24T11:08:19.253Z,66.80
2022-12-24T11:11:24.451Z,66.84
2022-12-24T11:14:37.655Z,66.77
2022-12-24T11:17:42.545Z,67.32
2022-12-24T11:20:53.532Z,67.01
2022-12-24T11:24:26.080Z,67.17
2022-12-24T11:27:51.470Z,67.17
2022-12-24T11:31:03.847Z,67.18
2022-12-24T11:34:23.370Z,68.09
2022-12-24T11:37:27.771Z,68.13
2022-12-24T11:40:38.128Z,68.18
2022-12-24T11:43:49.621Z,67.97
2022-12-24T11:46:57.827Z,68.27
2022-12-24T11:50:21.200Z,68.64
2022-12-24T11:53:47.834Z,67.65
2022-12-24T11:56:56.317Z,67.11
2022-12-24T12:00:00.797Z,66.07
2022-12-24T12:03:30.194Z,66.56
2022-12-24T12:06:56.331Z,67.35
2022-12-24T12:10:20.651Z,67.65
2022-12-24T12:13:33.977Z,66.47
2022-12-24T12:17:07.602Z,67.50
2022-12-24T12:20:25.009Z,67.83
2022-12-24T12:23:37.465Z,67.64
2022-12-24T12:26:44.160Z,66.14
2022-12-24T12:29:58.611Z,66.50
2022-12-24T12:33:27.143Z,67.30
2022-12-24T12:36:42.339Z,66.81
2022-12-24T12:39:47.110Z,67.13
2022-12-24T12:43:23.466Z,67.18
2022-12-24T12:46:52.308Z,67.22
2022-12-24T12:50:12.841Z,67.56
2022-12-24T12:53:28.814Z,68.57
2022-12-24T12:56:38.306Z,68.23
2022-12-24T12:59:58.555Z,68.73
2022-12-24T13:03:27.471Z,67.69
2022-12-24T13:06:59.373Z,66.90
2022-12-24T13:10:24.112Z,67.31
2022-12-24T13:13:46.879Z,67.76
2022-12-24T13:17:30.386Z,68.50
2022-12-24T13:20:38.160Z,67.52
2022-12-24T13:23:43.208Z,67.54
2022-12-24T13:27:08.139Z,66.51
2022-12-24T13:30:36.906Z,66.91
2022-12-24T13:33:41.288Z,67.19
2022-12-24T13:37:06.992Z,67.37
2022-12-24T13:40:11.461Z,66.88
2022-12-24T13:43:16.519Z,67.40
2022-12-24T13:46:50.201Z,65.42
2022-12-24T13:49:55.365Z,66.29
2022-12-24T13:52:59.964Z,67.27
2022-12-24T13:56:21.728Z,66.90
2022-12-24T13:59:39.385Z,67.18
2022-12-24T14:03:14.374Z,68.04
2022-12-24T14:06:26.412Z,67.33
2022-12-24T14:09:34.043Z,67.33
2022-12-24T14:12:51.620Z,66.03
2022-12-24T14:15:59.298Z,67.11
2022-12-24T14:19:14.941Z,67.92
2022-12-24T14:22:28.129Z,67.49
2022-12-24T14:25:33.359Z,67.56
2022-12-24T14:28:44.610Z,68.15
2022-12-24T14:31:55.555Z,67.44
2022-12-24T14:35:15.213Z,67.73
2022-12-24T14:38:22.109Z,67.34
2022-12-24T14:41:44.256Z,65.61
2022-12-24T14:44:57.401Z,67.13
2022-12-24T14:48:18.989Z,67.57
2022-12-24T14:51:29.324Z,68.20
2022-12-24T14:54:42.958Z,68.45
2022-12-24T14:57:47.532Z,68.98
2022-12-24T15:00:54.802Z,68.54
2022-12-24T15:04:04.105Z,68.02
2022-12-24T15:07:10.085Z,68.91
2022-12-24T15:10:35.845Z,68.41
2022-12-24T15:13:43.225Z,68.61
2022-12-24T15:17:08.464Z,69.05
2022-12-24T15:20:23.063Z,68.43
2022-12-24T15:23:34.438Z,68.47
2022-12-24T15:26:39.905Z,69.49
2022-12-24T15:29:47.509Z,68.51
2022-12-24T15:32:54.088Z,68.83
2022-12-24T15:35:58.857Z,68.59
2022-12-24T15:39:09.661Z,68.86
2022-12-24T15:42:20.833Z,69.09
2022-12-24T15:45:30.864Z,69.20
2022-12-24T15:48:37.238Z,69.91
2022-12-24T15:51:42.088Z,68.82
2022-12-24T15:54:55.684Z,67.33
2022-12-24T15:58:03.277Z,67.16
2022-12-24T16:01:10.270Z,67.98
2022-12-24T16:04:29.187Z,68.54
2022-12-24T16:07:53.522Z,67.15
2022-12-24T16:11:07.615Z,67.57
2022-12-24T16:14:21.133Z,67.67
2022-12-24T16:17:34.087Z,67.26
2022-12-24T16:20:38.838Z,68.29
2022-12-24T16:23:54.700Z,68.04
2022-12-24T16:26:59.467Z,68.25
2022-12-24T16:30:04.078Z,68.38
2022-12-24T16:33:16.206Z,69.33
2022-12-24T16:36:20.624Z,69.48
2022-12-24T16:39:32.647Z,70.06
2022-12-24T16:42:55.374Z,69.12
2022-12-24T16:46:06.514Z,68.33
2022-12-24T16:49:22.305Z,67.77
2022-12-24T16:52:29.764Z,67.29
2022-12-24T16:55:34.521Z,67.64
2022-12-24T16:58:39.114Z,68.25
2022-12-24T17:01:43.949Z,67.60
2022-12-24T17:04:50.455Z,67.37
2022-12-24T17:07:54.773Z,68.11
2022-12-24T17:10:59.304Z,69.94
2022-12-24T17:14:08.473Z,70.51
2022-12-24T17:17:34.040Z,70.43
2022-12-24T17:20:38.724Z,71.36
2022-12-24T17:23:43.536Z,71.63
2022-12-24T17:26:48.236Z,70.59
2022-12-24T17:29:53.054Z,71.07
2022-12-24T17:32:57.568Z,70.74
2022-12-24T17:36:02.021Z,71.74
2022-12-24T17:39:06.674Z,71.95
2022-12-24T17:42:11.340Z,71.46
2022-12-24T17:45:16.007Z,70.34
2022-12-24T17:48:20.526Z,69.93
2022-12-24T17:51:25.322Z,70.04
2022-12-24T17:54:29.966Z,70.68
2022-12-24T17:57:34.537Z,70.73
2022-12-24T18:00:39.588Z,71.51
2022-12-24T18:03:44.517Z,70.60
2022-12-24T18:06:49.846Z,71.13
2022-12-24T18:09:54.257Z,70.80
2022-12-24T18:12:58.907Z,71.51
2022-12-24T18:16:03.514Z,71.53
2022-12-24T18:19:11.279Z,71.33
2022-12-24T18:22:15.858Z,70.92
2022-12-24T18:25:21.246Z,71.09
2022-12-24T18:28:25.470Z,71.40
2022-12-24T18:31:30.625Z,71.36
2022-12-24T18:34:35.272Z,71.86
2022-12-24T18:37:39.763Z,71.33
2022-12-24T18:40:44.162Z,70.94
2022-12-24T18:43:49.353Z,70.10
2022-12-24T18:46:55.472Z,71.75
2022-12-24T18:49:59.928Z,71.52
2022-12-24T18:53:05.121Z,72.23
2022-12-24T18:56:16.674Z,72.17
2022-12-24T18:59:22.192Z,70.07
2022-12-24T19:02:26.835Z,68.91
2022-12-24T19:05:32.764Z,70.04
2022-12-24T19:12:02.760Z,70.32
2022-12-24T19:15:08.139Z,69.40
2022-12-24T19:18:12.923Z,69.55
2022-12-24T19:21:18.921Z,67.99
2022-12-24T19:24:24.859Z,66.90
2022-12-24T19:27:29.613Z,66.95
2022-12-24T19:30:34.169Z,68.04
2022-12-24T19:33:53.599Z,68.19
2022-12-24T19:36:58.285Z,67.27
2022-12-24T19:40:02.822Z,67.78
2022-12-24T19:43:07.594Z,66.67
2022-12-24T19:46:15.261Z,66.35
2022-12-24T19:49:20.635Z,65.50
2022-12-24T19:52:25.365Z,65.39
2022-12-24T19:55:29.930Z,66.77
2022-12-24T19:58:34.539Z,68.41
2022-12-24T20:01:39.146Z,68.20
2022-12-24T20:04:43.966Z,68.37
2022-12-24T20:07:48.608Z,69.30
2022-12-24T20:10:53.513Z,69.51
2022-12-24T20:14:02.872Z,69.71
2022-12-24T20:17:07.420Z,70.26
2022-12-24T20:20:12.403Z,70.76
2022-12-24T20:23:16.881Z,70.43
2022-12-24T20:26:24.621Z,69.83
2022-12-24T20:29:29.373Z,69.77
2022-12-24T20:32:33.921Z,70.52
2022-12-24T20:35:38.560Z,70.23
2022-12-24T20:38:44.325Z,69.84
2022-12-24T20:41:48.576Z,71.61
2022-12-24T20:44:53.135Z,71.27
2022-12-24T20:47:58.168Z,69.77
2022-12-24T20:51:11.232Z,69.52
2022-12-24T20:54:16.587Z,70.10
2022-12-24T20:57:25.905Z,70.18
2022-12-24T21:00:33.765Z,71.41
2022-12-24T21:03:38.498Z,71.36
2022-12-24T21:06:43.133Z,70.83
2022-12-24T21:09:47.819Z,71.73
2022-12-24T21:12:59.818Z,71.64
2022-12-24T21:16:04.332Z,71.71
2022-12-24T21:19:11.029Z,70.51
2022-12-24T21:22:15.584Z,69.83
2022-12-24T21:25:20.304Z,70.84
2022-12-24T21:28:24.888Z,71.28
2022-12-24T21:31:29.690Z,71.34
2022-12-24T21:34:34.424Z,71.73
2022-12-24T21:37:39.566Z,70.82
2022-12-24T21:40:44.557Z,71.34
2022-12-24T21:43:49.435Z,72.02
2022-12-24T21:46:54.044Z,71.83
2022-12-24T21:50:16.998Z,71.34
2022-12-24T21:53:39.732Z,70.83
2022-12-24T21:57:03.020Z,71.94
2022-12-24T22:00:25.028Z,71.88
2022-12-24T22:03:29.857Z,72.02
2022-12-24T22:06:52.843Z,72.40
2022-12-24T22:10:15.491Z,72.49
2022-12-24T22:13:20.251Z,72.22
2022-12-24T22:16:24.937Z,72.79
2022-12-24T22:19:29.973Z,71.74
2022-12-24T22:22:34.623Z,72.00
2022-12-24T22:25:39.639Z,71.99
2022-12-24T22:28:44.640Z,70.60
2022-12-24T22:31:49.410Z,70.66
2022-12-24T22:34:54.632Z,71.76
2022-12-24T22:38:00.320Z,71.74
2022-12-24T22:41:10.387Z,71.76
2022-12-24T22:44:15.092Z,72.65
2022-12-24T22:47:19.866Z,72.92
2022-12-24T22:50:25.051Z,71.58
2022-12-24T22:53:29.599Z,70.99
2022-12-24T22:56:40.479Z,70.91
2022-12-24T22:59:45.886Z,70.79
2022-12-24T23:02:50.450Z,71.42
2022-12-24T23:06:03.328Z,71.36
2022-12-24T23:09:10.807Z,69.20
2022-12-24T23:12:35.272Z,70.61
2022-12-24T23:15:40.753Z,70.49
2022-12-24T23:18:44.969Z,70.76
2022-12-24T23:21:49.335Z,70.46
2022-12-24T23:24:54.032Z,71.33
2022-12-24T23:27:58.800Z,70.25
2022-12-24T23:31:03.581Z,69.42
2022-12-24T23:34:08.567Z,70.02
2022-12-24T23:37:13.112Z,70.16
2022-12-24T23:40:17.879Z,68.94
2022-12-24T23:43:22.586Z,69.38
2022-12-24T23:46:27.464Z,67.59
2022-12-24T23:49:32.138Z,68.63
2022-12-24T23:52:37.597Z,70.28
2022-12-24T23:55:42.265Z,70.67
2022-12-24T23:58:46.924Z,69.19
